Time,TemperatureF,DewpointF,PressureIn,WindDirection,WindDirectionDegrees,WindSpeedMPH,WindSpeedGustMPH,Humidity,HourlyPrecipIn,Conditions,Clouds,dailyrainin,SolarRadiationWatts/m^2,SoftwareType,DateUTC
2013-03-23 00:04:00,39.5,27.5,29.99,North,360,5.0,8.0,62,0.00,CLR,CLR,0.00,0.0,WeatherDisplay:10.37,2013-03-23 04:04:00,
2013-03-23 00:09:00,39.4,27.8,29.99,North,360,5.0,8.0,63,0.00,CLR,CLR,0.00,0.0,WeatherDisplay:10.37,2013-03-23 04:09:00,
2013-03-23 00:14:00,39.4,27.8,30.00,North,360,6.0,9.0,63,0.00,CLR,CLR,0.00,0.0,WeatherDisplay:10.37,2013-03-23 04:14:00,
2013-03-23 00:19:00,39.4,27.9,30.00,North,360,5.0,10.0,63,0.00,CLR,CLR,0.00,0.0,WeatherDisplay:10.37,2013-03-23 04:19:00,
2013-03-23 00:24:00,39.4,27.9,30.00,North,360,3.0,10.0,63,0.00,CLR,CLR,0.00,0.0,WeatherDisplay:10.37,2013-03-23 04:24:00,
2013-03-23 00:29:00,39.3,27.4,30.00,North,360,5.0,12.0,62,0.00,CLR,CLR,0.00,0.0,WeatherDisplay:10.37,2013-03-23 04:29:00,
2013-03-23 00:34:00,39.1,27.6,30.00,North,360,2.0,6.0,63,0.00,CLR,CLR,0.00,0.0,WeatherDisplay:10.37,2013-03-23 04:34:00,
2013-03-23 00:39:00,39.1,27.9,29.99,North,360,3.0,5.0,64,0.00,CLR,CLR,0.00,0.0,WeatherDisplay:10.37,2013-03-23 04:39:00,
2013-03-23 00:49:00,39.2,28.0,29.99,North,360,2.0,6.0,64,0.00,CLR,CLR,0.00,0.0,WeatherDisplay:10.37,2013-03-23 04:49:00,
2013-03-23 00:54:00,39.3,28.1,29.99,North,360,2.0,6.0,64,0.00,CLR,CLR,0.00,0.0,WeatherDisplay:10.37,2013-03-23 04:54:00,
2013-03-23 00:59:00,39.2,28.1,29.99,North,360,3.0,7.0,64,0.00,CLR,CLR,0.00,0.0,WeatherDisplay:10.37,2013-03-23 04:59:00,
2013-03-23 01:09:00,39.3,28.5,30.00,North,360,5.0,12.0,65,0.00,CLR,CLR,0.00,0.0,WeatherDisplay:10.37,2013-03-23 05:09:00,
2013-03-23 01:14:00,39.4,28.2,30.00,North,360,3.0,10.0,64,0.00,CLR,CLR,0.00,0.0,WeatherDisplay:10.37,2013-03-23 05:14:00,
2013-03-23 01:19:00,39.3,28.1,29.99,North,360,0.0,5.0,64,0.00,CLR,CLR,0.00,0.0,WeatherDisplay:10.37,2013-03-23 05:19:00,
2013-03-23 01:29:00,39.1,27.9,29.98,North,360,1.0,4.0,64,0.00,CLR,CLR,0.00,0.0,WeatherDisplay:10.37,2013-03-23 05:29:00,
2013-03-23 01:34:00,39.1,27.9,29.97,North,360,0.0,1.0,64,0.00,CLR,CLR,0.00,0.0,WeatherDisplay:10.37,2013-03-23 05:34:00,
2013-03-23 01:39:00,39.0,27.8,29.98,North,360,2.0,6.0,64,0.00,CLR,CLR,0.00,0.0,WeatherDisplay:10.37,2013-03-23 05:39:00,
2013-03-23 01:44:00,38.8,28.1,29.98,North,360,2.0,6.0,65,0.00,CLR,CLR,0.00,0.0,WeatherDisplay:10.37,2013-03-23 05:44:00,
2013-03-23 01:49:00,38.4,28.1,29.98,North,360,6.0,10.0,66,0.00,CLR,CLR,0.00,0.0,WeatherDisplay:10.37,2013-03-23 05:49:00,
2013-03-23 01:54:00,38.3,28.3,29.98,North,360,6.0,10.0,67,0.00,CLR,CLR,0.00,0.0,WeatherDisplay:10.37,2013-03-23 05:54:00,
2013-03-23 01:59:00,38.5,28.1,29.97,North,360,3.0,12.0,66,0.00,CLR,CLR,0.00,0.0,WeatherDisplay:10.37,2013-03-23 05:59:00,
2013-03-23 02:04:00,38.4,28.0,29.97,North,360,3.0,7.0,66,0.00,CLR,CLR,0.00,0.0,WeatherDisplay:10.37,2013-03-23 06:04:00,
2013-03-23 02:14:00,38.5,28.1,29.98,North,360,5.0,10.0,66,0.00,CLR,CLR,0.00,0.0,WeatherDisplay:10.37,2013-03-23 06:14:00,
2013-03-23 02:19:00,38.6,28.6,29.98,North,360,5.0,12.0,67,0.00,CLR,CLR,0.00,0.0,WeatherDisplay:10.37,2013-03-23 06:19:00,
2013-03-23 02:24:00,38.7,28.7,29.98,North,360,3.0,9.0,67,0.00,CLR,CLR,0.00,0.0,WeatherDisplay:10.37,2013-03-23 06:24:00,
2013-03-23 02:29:00,38.8,28.8,29.98,North,360,2.0,9.0,67,0.00,CLR,CLR,0.00,0.0,WeatherDisplay:10.37,2013-03-23 06:29:00,
2013-03-23 02:39:00,39.2,28.8,29.98,North,360,5.0,12.0,66,0.00,CLR,CLR,0.00,0.0,WeatherDisplay:10.37,2013-03-23 06:39:00,
2013-03-23 02:49:00,39.2,29.5,29.98,North,360,5.0,8.0,68,0.00,CLR,CLR,0.00,0.0,WeatherDisplay:10.37,2013-03-23 06:49:00,
2013-03-23 02:54:00,39.3,29.6,29.97,North,360,3.0,10.0,68,0.00,CLR,CLR,0.00,0.0,WeatherDisplay:10.37,2013-03-23 06:54:00,
2013-03-23 03:04:00,39.5,29.8,29.97,North,360,1.0,7.0,68,0.00,CLR,CLR,0.00,0.0,WeatherDisplay:10.37,2013-03-23 07:04:00,
2013-03-23 03:09:00,39.4,29.7,29.96,North,360,2.0,5.0,68,0.00,CLR,CLR,0.00,0.0,WeatherDisplay:10.37,2013-03-23 07:09:00,
2013-03-23 03:14:00,39.2,29.5,29.97,North,360,3.0,9.0,68,0.00,CLR,CLR,0.00,0.0,WeatherDisplay:10.37,2013-03-23 07:14:00,
2013-03-23 03:19:00,39.1,29.8,29.97,North,360,3.0,9.0,69,0.00,CLR,CLR,0.00,0.0,WeatherDisplay:10.37,2013-03-23 07:19:00,
2013-03-23 03:29:00,39.0,29.7,29.97,North,360,5.0,7.0,69,0.00,CLR,CLR,0.00,0.0,WeatherDisplay:10.37,2013-03-23 07:29:00,
2013-03-23 03:34:00,39.1,29.8,29.96,North,360,3.0,7.0,69,0.00,CLR,CLR,0.00,0.0,WeatherDisplay:10.37,2013-03-23 07:34:00,
2013-03-23 03:39:00,39.1,29.8,29.96,North,360,2.0,9.0,69,0.00,CLR,CLR,0.00,0.0,WeatherDisplay:10.37,2013-03-23 07:39:00,
2013-03-23 03:49:00,39.3,30.0,29.95,North,360,1.0,6.0,69,0.00,CLR,CLR,0.00,0.0,WeatherDisplay:10.37,2013-03-23 07:49:00,
2013-03-23 03:54:00,39.4,30.4,29.96,North,360,6.0,9.0,70,0.00,CLR,CLR,0.00,0.0,WeatherDisplay:10.37,2013-03-23 07:54:00,
2013-03-23 04:04:00,39.6,30.6,29.94,North,360,1.0,6.0,70,0.00,CLR,CLR,0.00,0.0,WeatherDisplay:10.37,2013-03-23 08:04:00,
2013-03-23 04:14:00,39.4,31.5,29.95,North,360,3.0,6.0,73,0.00,CLR,CLR,0.00,0.0,WeatherDisplay:10.37,2013-03-23 08:14:00,
2013-03-23 04:19:00,39.2,31.9,29.95,North,360,2.0,5.0,75,0.00,CLR,CLR,0.00,0.0,WeatherDisplay:10.37,2013-03-23 08:19:00,
2013-03-23 04:24:00,39.1,31.8,29.95,North,360,1.0,9.0,75,0.00,CLR,CLR,0.00,0.0,WeatherDisplay:10.37,2013-03-23 08:24:00,
2013-03-23 04:29:00,38.9,31.3,29.95,North,360,5.0,7.0,74,0.00,CLR,CLR,0.00,0.0,WeatherDisplay:10.37,2013-03-23 08:29:00,
2013-03-23 04:34:00,38.8,31.6,29.96,North,360,1.0,9.0,75,0.00,CLR,CLR,0.00,0.0,WeatherDisplay:10.37,2013-03-23 08:34:00,
2013-03-23 04:44:00,38.6,31.4,29.94,North,360,3.0,12.0,75,0.00,CLR,CLR,0.00,0.0,WeatherDisplay:10.37,2013-03-23 08:44:00,
2013-03-23 04:49:00,38.7,31.7,29.94,North,360,2.0,7.0,76,0.00,CLR,CLR,0.00,0.0,WeatherDisplay:10.37,2013-03-23 08:49:00,
2013-03-23 04:54:00,38.6,31.7,29.95,North,360,5.0,7.0,76,0.00,CLR,CLR,0.00,0.0,WeatherDisplay:10.37,2013-03-23 08:54:00,
2013-03-23 04:59:00,38.7,31.8,29.95,North,360,5.0,9.0,76,0.00,CLR,CLR,0.00,0.0,WeatherDisplay:10.37,2013-03-23 08:59:00,
2013-03-23 05:04:00,38.8,31.9,29.95,North,360,1.0,5.0,76,0.00,CLR,CLR,0.00,0.0,WeatherDisplay:10.37,2013-03-23 09:04:00,
2013-03-23 05:10:00,38.8,31.9,29.94,North,360,3.0,6.0,76,0.00,CLR,CLR,0.00,0.0,WeatherDisplay:10.37,2013-03-23 09:10:00,
2013-03-23 05:19:00,38.9,32.0,29.94,North,360,0.0,0.0,76,0.00,CLR,CLR,0.00,0.0,WeatherDisplay:10.37,2013-03-23 09:19:00,
2013-03-23 05:24:00,38.9,32.0,29.94,North,360,0.0,2.0,76,0.00,CLR,CLR,0.00,0.0,WeatherDisplay:10.37,2013-03-23 09:24:00,
2013-03-23 05:29:00,38.9,32.0,29.93,North,360,0.0,1.0,76,0.00,CLR,CLR,0.00,0.0,WeatherDisplay:10.37,2013-03-23 09:29:00,
2013-03-23 05:39:00,39.1,32.2,29.94,North,360,0.0,4.0,76,0.00,CLR,CLR,0.00,0.0,WeatherDisplay:10.37,2013-03-23 09:39:00,
2013-03-23 05:44:00,39.1,32.2,29.94,North,360,0.0,2.0,76,0.00,CLR,CLR,0.00,0.0,WeatherDisplay:10.37,2013-03-23 09:44:00,
2013-03-23 05:49:00,39.2,32.3,29.94,North,360,0.0,0.0,76,0.00,CLR,CLR,0.00,0.0,WeatherDisplay:10.37,2013-03-23 09:49:00,
2013-03-23 05:59:00,39.0,32.4,29.94,North,360,0.0,1.0,77,0.00,CLR,CLR,0.00,0.0,WeatherDisplay:10.37,2013-03-23 09:59:00,
2013-03-23 06:04:00,39.0,32.4,29.94,North,360,0.0,0.0,77,0.00,CLR,CLR,0.00,0.0,WeatherDisplay:10.37,2013-03-23 10:04:00,
2013-03-23 06:09:00,38.9,32.3,29.94,North,360,0.0,0.0,77,0.00,CLR,CLR,0.00,0.0,WeatherDisplay:10.37,2013-03-23 10:09:00,
2013-03-23 06:14:00,38.8,32.2,29.95,North,360,0.0,0.0,77,0.00,CLR,CLR,0.00,0.0,WeatherDisplay:10.37,2013-03-23 10:14:00,
2013-03-23 06:24:00,38.6,32.3,29.95,North,360,0.0,1.0,78,0.00,CLR,CLR,0.00,0.0,WeatherDisplay:10.37,2013-03-23 10:24:00,
2013-03-23 06:34:00,38.3,33.3,29.96,North,360,1.0,3.0,82,0.01,RA,RA,0.01,0.0,WeatherDisplay:10.37,2013-03-23 10:34:00,
2013-03-23 06:39:00,38.0,33.0,29.96,North,360,2.0,4.0,82,0.00,RA,RA,0.01,0.0,WeatherDisplay:10.37,2013-03-23 10:39:00,
2013-03-23 06:49:00,38.0,33.3,29.97,North,360,0.0,2.0,83,0.00,RA,RA,0.01,0.0,WeatherDisplay:10.37,2013-03-23 10:49:00,
2013-03-23 06:59:00,37.8,34.0,29.98,North,360,0.0,2.0,86,0.01,RA,RA,0.02,0.0,WeatherDisplay:10.37,2013-03-23 10:59:00,
2013-03-23 07:04:00,37.7,33.9,29.98,North,360,0.0,2.0,86,0.01,RA,RA,0.03,0.0,WeatherDisplay:10.37,2013-03-23 11:04:00,
2013-03-23 07:09:00,37.5,34.0,29.97,North,360,0.0,2.0,87,0.00,RA,RA,0.03,0.0,WeatherDisplay:10.37,2013-03-23 11:09:00,
2013-03-23 07:14:00,37.4,34.2,29.96,North,360,0.0,0.0,88,0.01,RA,RA,0.04,0.0,WeatherDisplay:10.37,2013-03-23 11:14:00,
2013-03-23 07:19:00,37.0,34.1,29.96,North,360,0.0,0.0,89,0.01,RA,RA,0.05,0.0,WeatherDisplay:10.37,2013-03-23 11:19:00,
2013-03-23 07:24:00,36.8,34.1,29.96,North,360,0.0,0.0,90,0.00,RA,RA,0.05,0.0,WeatherDisplay:10.37,2013-03-23 11:24:00,
2013-03-23 07:34:00,36.6,34.2,29.96,North,360,0.0,1.0,91,0.00,RA,RA,0.07,0.0,WeatherDisplay:10.37,2013-03-23 11:34:00,
2013-03-23 07:39:00,36.6,34.2,29.96,North,360,1.0,5.0,91,0.00,RA,RA,0.07,0.0,WeatherDisplay:10.37,2013-03-23 11:39:00,
2013-03-23 07:44:00,36.5,34.1,29.96,North,360,0.0,2.0,91,0.01,RA,RA,0.08,0.0,WeatherDisplay:10.37,2013-03-23 11:44:00,
2013-03-23 07:49:00,36.4,34.0,29.96,North,360,0.0,0.0,91,0.00,RA,RA,0.08,0.0,WeatherDisplay:10.37,2013-03-23 11:49:00,
2013-03-23 07:54:00,36.4,34.0,29.96,North,360,0.0,0.0,91,0.00,RA,RA,0.08,5.0,WeatherDisplay:10.37,2013-03-23 11:54:00,
2013-03-23 08:04:00,36.4,34.3,29.97,North,360,0.0,3.0,92,0.00,RA,RA,0.08,7.0,WeatherDisplay:10.37,2013-03-23 12:04:00,
2013-03-23 08:09:00,36.3,34.2,29.97,North,360,0.0,0.0,92,0.00,RA,RA,0.08,7.0,WeatherDisplay:10.37,2013-03-23 12:09:00,
2013-03-23 08:20:00,36.4,34.6,29.97,North,360,0.0,0.0,93,0.00,RA,RA,0.08,12.0,WeatherDisplay:10.37,2013-03-23 12:20:00,
2013-03-23 08:29:00,36.5,34.7,29.98,North,360,0.0,0.0,93,0.00,RA,RA,0.08,12.0,WeatherDisplay:10.37,2013-03-23 12:29:00,
2013-03-23 08:34:00,36.5,34.7,29.98,North,360,0.0,0.0,93,0.00,RA,RA,0.08,12.0,WeatherDisplay:10.37,2013-03-23 12:34:00,
2013-03-23 08:39:00,36.6,34.8,29.98,North,360,0.0,0.0,93,0.00,RA,RA,0.08,21.0,WeatherDisplay:10.37,2013-03-23 12:39:00,
2013-03-23 08:49:00,36.9,35.1,29.99,North,360,0.0,2.0,93,0.00,RA,RA,0.08,23.0,WeatherDisplay:10.37,2013-03-23 12:49:00,
2013-03-23 08:54:00,36.9,35.1,29.99,North,360,0.0,0.0,93,0.00,RA,RA,0.08,26.0,WeatherDisplay:10.37,2013-03-23 12:54:00,
2013-03-23 08:59:00,36.9,35.1,29.99,North,360,0.0,2.0,93,0.00,RA,RA,0.08,35.0,WeatherDisplay:10.37,2013-03-23 12:59:00,
2013-03-23 09:04:00,36.9,35.1,29.99,North,360,0.0,0.0,93,0.00,RA,RA,0.08,39.0,WeatherDisplay:10.37,2013-03-23 13:04:00,
2013-03-23 09:09:00,37.1,35.5,29.99,North,360,1.0,3.0,94,0.00,RA,RA,0.08,32.0,WeatherDisplay:10.37,2013-03-23 13:09:00,
2013-03-23 09:14:00,37.1,35.5,29.99,North,360,0.0,0.0,94,0.00,RA,RA,0.08,30.0,WeatherDisplay:10.37,2013-03-23 13:14:00,
2013-03-23 09:19:00,37.3,35.7,29.99,North,360,0.0,3.0,94,0.00,RA,RA,0.08,30.0,WeatherDisplay:10.37,2013-03-23 13:19:00,
2013-03-23 09:29:00,37.7,36.1,29.99,North,360,0.0,3.0,94,0.00,RA,RA,0.08,33.0,WeatherDisplay:10.37,2013-03-23 13:29:00,
2013-03-23 09:39:00,37.9,36.3,29.98,North,360,0.0,0.0,94,0.00,RA,RA,0.08,49.0,WeatherDisplay:10.37,2013-03-23 13:39:00,
2013-03-23 09:44:00,38.0,36.4,29.98,North,360,1.0,3.0,94,0.00,RA,RA,0.08,46.0,WeatherDisplay:10.37,2013-03-23 13:44:00,
2013-03-23 09:49:00,38.0,36.4,29.98,North,360,0.0,0.0,94,0.00,RA,RA,0.08,46.0,WeatherDisplay:10.37,2013-03-23 13:49:00,
2013-03-23 09:59:00,38.0,36.4,29.99,North,360,0.0,0.0,94,0.00,RA,RA,0.08,32.0,WeatherDisplay:10.37,2013-03-23 13:59:00,
2013-03-23 10:09:00,38.1,36.5,29.99,North,360,0.0,0.0,94,0.00,RA,RA,0.08,53.0,WeatherDisplay:10.37,2013-03-23 14:09:00,
2013-03-23 10:14:00,38.2,36.6,29.99,North,360,0.0,0.0,94,0.00,RA,RA,0.08,81.0,WeatherDisplay:10.37,2013-03-23 14:14:00,
2013-03-23 10:19:00,38.3,36.7,29.99,North,360,0.0,0.0,94,0.00,RA,RA,0.08,100.0,WeatherDisplay:10.37,2013-03-23 14:19:00,
2013-03-23 10:24:00,38.2,36.6,29.98,North,360,1.0,2.0,94,0.00,RA,RA,0.08,97.0,WeatherDisplay:10.37,2013-03-23 14:24:00,
2013-03-23 10:29:00,38.1,36.6,29.98,North,360,0.0,2.0,94,0.00,RA,RA,0.08,105.0,WeatherDisplay:10.37,2013-03-23 14:29:00,
2013-03-23 10:34:00,38.1,36.6,29.98,North,360,0.0,1.0,94,0.00,RA,RA,0.08,125.0,WeatherDisplay:10.37,2013-03-23 14:34:00,
2013-03-23 10:39:00,38.2,36.6,29.97,North,360,0.0,2.0,94,0.00,RA,RA,0.08,135.0,WeatherDisplay:10.37,2013-03-23 14:39:00,
2013-03-23 10:44:00,38.3,36.7,29.97,North,360,0.0,0.0,94,0.00,RA,RA,0.08,104.0,WeatherDisplay:10.37,2013-03-23 14:44:00,
2013-03-23 10:49:00,38.5,36.9,29.97,North,360,0.0,1.0,94,0.00,RA,RA,0.08,139.0,WeatherDisplay:10.37,2013-03-23 14:49:00,
2013-03-23 10:54:00,38.7,37.1,29.97,North,360,0.0,1.0,94,0.00,RA,RA,0.08,162.0,WeatherDisplay:10.37,2013-03-23 14:54:00,
2013-03-23 10:59:00,38.9,37.6,29.97,North,360,0.0,0.0,95,0.00,RA,RA,0.08,109.0,WeatherDisplay:10.37,2013-03-23 14:59:00,
2013-03-23 11:04:00,39.3,38.0,29.97,North,360,0.0,0.0,95,0.00,RA,RA,0.08,163.0,WeatherDisplay:10.37,2013-03-23 15:04:00,
2013-03-23 11:09:00,39.5,38.2,29.97,North,360,0.0,0.0,95,0.00,RA,RA,0.08,160.0,WeatherDisplay:10.37,2013-03-23 15:09:00,
2013-03-23 11:14:00,39.7,38.4,29.97,North,360,0.0,0.0,95,0.00,RA,RA,0.08,221.0,WeatherDisplay:10.37,2013-03-23 15:14:00,
2013-03-23 11:19:00,40.0,38.7,29.97,North,360,3.0,4.0,95,0.00,RA,RA,0.08,171.0,WeatherDisplay:10.37,2013-03-23 15:19:00,
2013-03-23 11:24:00,40.2,38.9,29.97,North,360,0.0,4.0,95,0.00,RA,RA,0.08,214.0,WeatherDisplay:10.37,2013-03-23 15:24:00,
2013-03-23 11:29:00,40.5,39.2,29.97,North,360,2.0,3.0,95,0.00,RA,RA,0.08,188.0,WeatherDisplay:10.37,2013-03-23 15:29:00,
2013-03-23 11:34:00,40.7,39.1,29.97,North,360,0.0,3.0,94,0.00,RA,RA,0.08,127.0,WeatherDisplay:10.37,2013-03-23 15:34:00,
2013-03-23 11:39:00,40.8,39.2,29.97,North,360,0.0,3.0,94,0.00,RA,RA,0.08,98.0,WeatherDisplay:10.37,2013-03-23 15:39:00,
2013-03-23 11:44:00,40.8,39.2,29.97,North,360,0.0,0.0,94,0.00,RA,RA,0.08,120.0,WeatherDisplay:10.37,2013-03-23 15:44:00,
2013-03-23 11:49:00,40.8,38.9,29.97,North,360,0.0,1.0,93,0.00,RA,RA,0.08,162.0,WeatherDisplay:10.37,2013-03-23 15:49:00,
2013-03-23 11:54:00,40.9,39.3,29.97,North,360,0.0,0.0,94,0.00,RA,RA,0.08,158.0,WeatherDisplay:10.37,2013-03-23 15:54:00,
2013-03-23 11:59:00,41.1,39.5,29.97,North,360,0.0,0.0,94,0.00,RA,RA,0.08,128.0,WeatherDisplay:10.37,2013-03-23 15:59:00,
2013-03-23 12:04:00,41.1,39.3,29.97,North,360,0.0,1.0,93,0.00,RA,RA,0.08,146.0,WeatherDisplay:10.37,2013-03-23 16:04:00,
2013-03-23 12:09:00,41.2,39.3,29.97,North,360,0.0,0.0,93,0.00,RA,RA,0.08,128.0,WeatherDisplay:10.37,2013-03-23 16:09:00,
2013-03-23 12:14:00,41.4,39.5,29.97,North,360,0.0,1.0,93,0.00,RA,RA,0.08,172.0,WeatherDisplay:10.37,2013-03-23 16:14:00,
2013-03-23 12:19:00,41.6,39.7,29.97,North,360,0.0,1.0,93,0.00,RA,RA,0.08,176.0,WeatherDisplay:10.37,2013-03-23 16:19:00,
2013-03-23 12:29:00,41.8,39.6,29.97,North,360,0.0,0.0,92,0.00,RA,RA,0.08,139.0,WeatherDisplay:10.37,2013-03-23 16:29:00,
2013-03-23 12:34:00,41.9,39.7,29.97,North,360,0.0,1.0,92,0.00,RA,RA,0.08,144.0,WeatherDisplay:10.37,2013-03-23 16:34:00,
2013-03-23 12:39:00,42.1,40.2,29.97,North,360,0.0,1.0,93,0.00,RA,RA,0.08,171.0,WeatherDisplay:10.37,2013-03-23 16:39:00,
2013-03-23 12:49:00,42.3,40.1,29.97,North,360,0.0,2.0,92,0.00,RA,RA,0.08,190.0,WeatherDisplay:10.37,2013-03-23 16:49:00,
2013-03-23 12:59:00,42.6,40.5,29.96,North,360,0.0,3.0,92,0.00,RA,RA,0.08,179.0,WeatherDisplay:10.37,2013-03-23 16:59:00,
2013-03-23 13:04:00,42.7,40.5,29.96,North,360,1.0,2.0,92,0.00,RA,RA,0.08,197.0,WeatherDisplay:10.37,2013-03-23 17:04:00,
2013-03-23 13:09:00,42.7,40.3,29.96,North,360,0.0,3.0,91,0.00,RA,RA,0.08,243.0,WeatherDisplay:10.37,2013-03-23 17:09:00,
2013-03-23 13:14:00,42.7,40.6,29.96,North,360,0.0,3.0,92,0.00,RA,RA,0.08,244.0,WeatherDisplay:10.37,2013-03-23 17:14:00,
2013-03-23 13:19:00,43.0,40.9,29.96,North,360,0.0,2.0,92,0.00,RA,RA,0.08,283.0,WeatherDisplay:10.37,2013-03-23 17:19:00,
2013-03-23 13:24:00,43.2,41.1,29.96,North,360,0.0,3.0,92,0.00,RA,RA,0.08,415.0,WeatherDisplay:10.37,2013-03-23 17:24:00,
2013-03-23 13:29:00,43.4,41.0,29.95,North,360,1.0,4.0,91,0.00,RA,RA,0.08,432.0,WeatherDisplay:10.37,2013-03-23 17:29:00,
2013-03-23 13:34:00,43.6,40.9,29.95,North,360,0.0,4.0,90,0.00,RA,RA,0.08,482.0,WeatherDisplay:10.37,2013-03-23 17:34:00,
2013-03-23 13:44:00,44.7,42.3,29.94,North,360,2.0,7.0,91,0.00,RA,RA,0.08,374.0,WeatherDisplay:10.37,2013-03-23 17:44:00,
2013-03-23 13:49:00,45.1,42.1,29.94,North,360,3.0,5.0,89,0.00,RA,RA,0.08,388.0,WeatherDisplay:10.37,2013-03-23 17:49:00,
2013-03-23 13:59:00,46.7,43.3,29.93,North,360,0.0,3.0,88,0.00,RA,RA,0.08,415.0,WeatherDisplay:10.37,2013-03-23 17:59:00,
2013-03-23 14:04:00,47.2,43.5,29.93,North,360,0.0,1.0,87,0.00,RA,RA,0.08,846.0,WeatherDisplay:10.37,2013-03-23 18:04:00,
2013-03-23 14:14:00,48.6,44.3,29.92,North,360,0.0,6.0,85,0.00,RA,RA,0.08,385.0,WeatherDisplay:10.37,2013-03-23 18:14:00,
2013-03-23 14:19:00,49.0,44.3,29.92,North,360,2.0,7.0,84,0.00,RA,RA,0.08,1078.0,WeatherDisplay:10.37,2013-03-23 18:19:00,
2013-03-23 14:24:00,49.9,44.9,29.92,North,360,0.0,3.0,83,0.00,RA,RA,0.08,475.0,WeatherDisplay:10.37,2013-03-23 18:24:00,
2013-03-23 14:34:00,52.6,46.6,29.91,North,360,2.0,7.0,80,0.00,RA,RA,0.08,668.0,WeatherDisplay:10.37,2013-03-23 18:34:00,
2013-03-23 14:40:00,53.4,46.3,29.91,North,360,2.0,6.0,77,0.00,RA,RA,0.08,1099.0,WeatherDisplay:10.37,2013-03-23 18:40:00,
2013-03-23 14:49:00,54.4,47.0,29.90,North,360,1.0,7.0,76,0.00,RA,RA,0.08,564.0,WeatherDisplay:10.37,2013-03-23 18:49:00,
2013-03-23 14:54:00,54.9,46.8,29.90,North,360,2.0,6.0,74,0.00,RA,RA,0.08,496.0,WeatherDisplay:10.37,2013-03-23 18:54:00,
2013-03-23 14:59:00,55.3,45.7,29.90,North,360,1.0,5.0,70,0.00,RA,RA,0.08,445.0,WeatherDisplay:10.37,2013-03-23 18:59:00,
2013-03-23 15:09:00,55.9,47.3,29.89,North,360,6.0,14.0,73,0.00,RA,RA,0.08,497.0,WeatherDisplay:10.37,2013-03-23 19:09:00,
2013-03-23 15:14:00,56.2,46.9,29.90,North,360,2.0,12.0,71,0.00,RA,RA,0.08,457.0,WeatherDisplay:10.37,2013-03-23 19:14:00,
2013-03-23 15:19:00,55.9,45.5,29.89,North,360,6.0,12.0,68,0.00,RA,RA,0.08,473.0,WeatherDisplay:10.37,2013-03-23 19:19:00,
2013-03-23 15:24:00,55.5,45.9,29.89,North,360,2.0,7.0,70,0.00,RA,RA,0.08,466.0,WeatherDisplay:10.37,2013-03-23 19:24:00,
2013-03-23 15:29:00,55.6,45.6,29.88,North,360,2.0,6.0,69,0.00,RA,RA,0.08,471.0,WeatherDisplay:10.37,2013-03-23 19:29:00,
2013-03-23 15:39:00,56.9,46.8,29.88,North,360,2.0,8.0,69,0.00,RA,RA,0.08,425.0,WeatherDisplay:10.37,2013-03-23 19:39:00,
2013-03-23 15:44:00,57.2,46.3,29.88,North,360,7.0,12.0,67,0.00,RA,RA,0.08,374.0,WeatherDisplay:10.37,2013-03-23 19:44:00,
2013-03-23 15:50:00,57.1,47.4,29.88,North,360,2.0,7.0,70,0.00,RA,RA,0.08,322.0,WeatherDisplay:10.37,2013-03-23 19:50:00,
2013-03-23 15:59:00,57.1,46.6,29.88,North,360,2.0,7.0,68,0.00,RA,RA,0.08,272.0,WeatherDisplay:10.37,2013-03-23 19:59:00,
2013-03-23 16:04:00,56.7,46.6,29.88,North,360,1.0,6.0,69,0.00,RA,RA,0.08,313.0,WeatherDisplay:10.37,2013-03-23 20:04:00,
2013-03-23 16:09:00,56.6,46.9,29.88,North,360,1.0,4.0,70,0.00,RA,RA,0.08,260.0,WeatherDisplay:10.37,2013-03-23 20:09:00,
2013-03-23 16:14:00,56.3,45.9,29.87,North,360,8.0,12.0,68,0.00,RA,RA,0.08,237.0,WeatherDisplay:10.37,2013-03-23 20:14:00,
2013-03-23 16:19:00,56.0,46.4,29.88,North,360,1.0,10.0,70,0.00,RA,RA,0.08,213.0,WeatherDisplay:10.37,2013-03-23 20:19:00,
2013-03-23 16:24:00,56.0,46.8,29.88,North,360,3.0,10.0,71,0.00,RA,RA,0.08,192.0,WeatherDisplay:10.37,2013-03-23 20:24:00,
2013-03-23 16:29:00,56.0,46.3,29.88,North,360,3.0,12.0,70,0.00,RA,RA,0.08,211.0,WeatherDisplay:10.37,2013-03-23 20:29:00,
2013-03-23 16:39:00,55.3,46.4,29.88,North,360,0.0,9.0,72,0.00,RA,RA,0.08,246.0,WeatherDisplay:10.37,2013-03-23 20:39:00,
2013-03-23 16:44:00,55.3,46.4,29.87,North,360,3.0,6.0,72,0.00,RA,RA,0.08,250.0,WeatherDisplay:10.37,2013-03-23 20:44:00,
2013-03-23 16:49:00,55.3,46.8,29.87,North,360,0.0,7.0,73,0.00,RA,RA,0.08,250.0,WeatherDisplay:10.37,2013-03-23 20:49:00,
2013-03-23 16:59:00,55.6,46.7,29.87,North,360,1.0,4.0,72,0.00,RA,RA,0.08,271.0,WeatherDisplay:10.37,2013-03-23 20:59:00,
2013-03-23 17:04:00,55.8,46.5,29.87,North,360,2.0,7.0,71,0.00,RA,RA,0.08,290.0,WeatherDisplay:10.37,2013-03-23 21:04:00,
2013-03-23 17:09:00,55.8,45.8,29.88,North,360,1.0,6.0,69,0.00,RA,RA,0.08,415.0,WeatherDisplay:10.37,2013-03-23 21:09:00,
2013-03-23 17:14:00,55.8,45.8,29.88,North,360,1.0,9.0,69,0.00,RA,RA,0.08,325.0,WeatherDisplay:10.37,2013-03-23 21:14:00,
2013-03-23 17:24:00,56.4,46.3,29.88,North,360,0.0,6.0,69,0.00,RA,RA,0.08,209.0,WeatherDisplay:10.37,2013-03-23 21:24:00,
2013-03-23 17:34:00,56.2,45.8,29.88,North,360,1.0,5.0,68,0.00,RA,RA,0.08,137.0,WeatherDisplay:10.37,2013-03-23 21:34:00,
2013-03-23 17:39:00,55.9,45.5,29.87,North,360,0.0,3.0,68,0.00,RA,RA,0.08,171.0,WeatherDisplay:10.37,2013-03-23 21:39:00,
2013-03-23 17:44:00,55.6,46.0,29.87,North,360,5.0,7.0,70,0.00,RA,RA,0.08,197.0,WeatherDisplay:10.37,2013-03-23 21:44:00,
2013-03-23 17:50:00,54.8,45.9,29.87,North,360,3.0,7.0,72,0.00,RA,RA,0.08,295.0,WeatherDisplay:10.37,2013-03-23 21:50:00,
2013-03-23 17:59:00,53.7,45.6,29.87,North,360,8.0,12.0,74,0.00,RA,RA,0.08,81.0,WeatherDisplay:10.37,2013-03-23 21:59:00,
2013-03-23 18:04:00,52.4,45.0,29.88,North,360,5.0,12.0,76,0.00,RA,RA,0.08,81.0,WeatherDisplay:10.37,2013-03-23 22:04:00,
2013-03-23 18:09:00,51.7,45.0,29.88,North,360,0.0,7.0,78,0.00,RA,RA,0.08,91.0,WeatherDisplay:10.37,2013-03-23 22:09:00,
2013-03-23 18:14:00,51.5,44.8,29.88,North,360,0.0,0.0,78,0.00,RA,RA,0.08,86.0,WeatherDisplay:10.37,2013-03-23 22:14:00,
2013-03-23 18:24:00,51.0,44.7,29.89,North,360,6.0,12.0,79,0.00,RA,RA,0.08,65.0,WeatherDisplay:10.37,2013-03-23 22:24:00,
2013-03-23 18:29:00,49.8,44.2,29.89,North,360,2.0,10.0,81,0.00,RA,RA,0.08,69.0,WeatherDisplay:10.37,2013-03-23 22:29:00,
2013-03-23 18:39:00,48.6,43.7,29.88,North,360,0.0,7.0,83,0.00,RA,RA,0.08,60.0,WeatherDisplay:10.37,2013-03-23 22:39:00,
2013-03-23 18:49:00,47.9,43.6,29.90,North,360,0.0,1.0,85,0.00,RA,RA,0.08,58.0,WeatherDisplay:10.37,2013-03-23 22:49:00,
2013-03-23 18:54:00,47.7,43.7,29.89,North,360,3.0,7.0,86,0.00,RA,RA,0.08,60.0,WeatherDisplay:10.37,2013-03-23 22:54:00,
2013-03-23 18:59:00,47.3,43.3,29.90,North,360,5.0,9.0,86,0.00,RA,RA,0.08,40.0,WeatherDisplay:10.37,2013-03-23 22:59:00,
2013-03-23 19:10:00,46.8,43.4,29.91,North,360,0.0,3.0,88,0.00,RA,RA,0.08,32.0,WeatherDisplay:10.37,2013-03-23 23:10:00,
2013-03-23 19:19:00,46.6,43.2,29.91,North,360,2.0,4.0,88,0.00,RA,RA,0.08,19.0,WeatherDisplay:10.37,2013-03-23 23:19:00,
2013-03-23 19:24:00,46.5,43.1,29.91,North,360,0.0,3.0,88,0.00,RA,RA,0.08,18.0,WeatherDisplay:10.37,2013-03-23 23:24:00,
2013-03-23 19:30:00,46.3,43.3,29.91,North,360,0.0,4.0,89,0.00,RA,RA,0.08,14.0,WeatherDisplay:10.37,2013-03-23 23:30:00,
2013-03-23 19:39:00,46.1,43.0,29.90,North,360,0.0,3.0,89,0.00,RA,RA,0.08,5.0,WeatherDisplay:10.37,2013-03-23 23:39:00,
2013-03-23 19:49:00,45.7,42.9,29.91,North,360,0.0,4.0,90,0.00,RA,RA,0.08,0.0,WeatherDisplay:10.37,2013-03-23 23:49:00,
2013-03-23 19:54:00,45.5,42.7,29.90,North,360,0.0,0.0,90,0.00,RA,RA,0.08,0.0,WeatherDisplay:10.37,2013-03-23 23:54:00,
2013-03-23 19:59:00,45.4,42.6,29.90,North,360,0.0,2.0,90,0.00,RA,RA,0.08,0.0,WeatherDisplay:10.37,2013-03-23 23:59:00,
2013-03-23 20:04:00,45.2,42.7,29.90,North,360,1.0,4.0,91,0.00,RA,RA,0.08,0.0,WeatherDisplay:10.37,2013-03-24 00:04:00,
2013-03-23 20:09:00,45.0,42.5,29.90,North,360,0.0,0.0,91,0.00,RA,RA,0.08,0.0,WeatherDisplay:10.37,2013-03-24 00:09:00,
2013-03-23 20:14:00,45.0,42.5,29.91,North,360,0.0,0.0,91,0.00,RA,RA,0.08,0.0,WeatherDisplay:10.37,2013-03-24 00:14:00,
2013-03-23 20:20:00,45.0,42.8,29.90,North,360,0.0,1.0,92,0.00,RA,RA,0.08,0.0,WeatherDisplay:10.37,2013-03-24 00:20:00,
2013-03-23 20:29:00,44.9,42.7,29.90,North,360,0.0,1.0,92,0.00,RA,RA,0.08,0.0,WeatherDisplay:10.37,2013-03-24 00:29:00,
2013-03-23 20:34:00,44.7,42.5,29.90,North,360,1.0,3.0,92,0.00,RA,RA,0.08,0.0,WeatherDisplay:10.37,2013-03-24 00:34:00,
2013-03-23 20:39:00,44.6,42.4,29.90,North,360,2.0,4.0,92,0.00,RA,RA,0.08,0.0,WeatherDisplay:10.37,2013-03-24 00:39:00,
2013-03-23 20:44:00,44.5,42.3,29.90,North,360,2.0,4.0,92,0.00,RA,RA,0.08,0.0,WeatherDisplay:10.37,2013-03-24 00:44:00,
2013-03-23 20:49:00,44.3,42.1,29.90,North,360,0.0,3.0,92,0.00,RA,RA,0.08,0.0,WeatherDisplay:10.37,2013-03-24 00:49:00,
2013-03-23 20:54:00,44.2,42.0,29.90,North,360,0.0,3.0,92,0.00,RA,RA,0.08,0.0,WeatherDisplay:10.37,2013-03-24 00:54:00,
2013-03-23 20:59:00,44.0,41.9,29.90,North,360,2.0,6.0,92,0.00,RA,RA,0.08,0.0,WeatherDisplay:10.37,2013-03-24 00:59:00,
2013-03-23 21:09:00,44.0,42.1,29.90,North,360,3.0,6.0,93,0.00,RA,RA,0.08,0.0,WeatherDisplay:10.37,2013-03-24 01:09:00,
2013-03-23 21:19:00,43.9,42.0,29.90,North,360,0.0,4.0,93,0.00,RA,RA,0.08,0.0,WeatherDisplay:10.37,2013-03-24 01:19:00,
2013-03-23 21:29:00,44.0,42.4,29.91,North,360,0.0,4.0,94,0.00,RA,RA,0.08,0.0,WeatherDisplay:10.37,2013-03-24 01:29:00,
2013-03-23 21:34:00,44.0,42.4,29.91,North,360,0.0,0.0,94,0.00,RA,RA,0.08,0.0,WeatherDisplay:10.37,2013-03-24 01:34:00,
2013-03-23 21:39:00,44.0,42.4,29.91,North,360,0.0,3.0,94,0.00,RA,RA,0.08,0.0,WeatherDisplay:10.37,2013-03-24 01:39:00,
2013-03-23 21:49:00,44.0,42.4,29.91,North,360,0.0,0.0,94,0.00,RA,RA,0.08,0.0,WeatherDisplay:10.37,2013-03-24 01:49:00,
2013-03-23 21:54:00,44.0,42.3,29.90,North,360,0.0,3.0,94,0.00,RA,RA,0.08,0.0,WeatherDisplay:10.37,2013-03-24 01:54:00,
2013-03-23 21:59:00,43.9,42.3,29.91,North,360,0.0,2.0,94,0.00,RA,RA,0.08,0.0,WeatherDisplay:10.37,2013-03-24 01:59:00,
2013-03-23 22:04:00,43.9,42.3,29.91,North,360,0.0,0.0,94,0.00,RA,RA,0.08,0.0,WeatherDisplay:10.37,2013-03-24 02:04:00,
2013-03-23 22:09:00,43.8,42.2,29.91,North,360,0.0,3.0,94,0.00,RA,RA,0.08,0.0,WeatherDisplay:10.37,2013-03-24 02:09:00,
2013-03-23 22:14:00,43.8,42.2,29.92,North,360,3.0,6.0,94,0.00,RA,RA,0.08,0.0,WeatherDisplay:10.37,2013-03-24 02:14:00,
2013-03-23 22:20:00,43.7,42.1,29.91,North,360,0.0,0.0,94,0.00,RA,RA,0.08,0.0,WeatherDisplay:10.37,2013-03-24 02:20:00,
2013-03-23 22:29:00,43.8,42.2,29.91,North,360,0.0,0.0,94,0.00,RA,RA,0.08,0.0,WeatherDisplay:10.37,2013-03-24 02:29:00,
2013-03-23 22:34:00,43.7,42.1,29.91,North,360,0.0,0.0,94,0.00,RA,RA,0.08,0.0,WeatherDisplay:10.37,2013-03-24 02:34:00,
2013-03-23 22:44:00,43.7,42.1,29.89,North,360,1.0,3.0,94,0.00,RA,RA,0.08,0.0,WeatherDisplay:10.37,2013-03-24 02:44:00,
2013-03-23 22:49:00,43.7,42.1,29.89,North,360,1.0,4.0,94,0.00,RA,RA,0.08,0.0,WeatherDisplay:10.37,2013-03-24 02:49:00,
2013-03-23 22:59:00,43.7,42.1,29.89,North,360,0.0,0.0,94,0.00,RA,RA,0.08,0.0,WeatherDisplay:10.37,2013-03-24 02:59:00,
2013-03-23 23:04:00,43.6,42.0,29.89,North,360,0.0,0.0,94,0.00,RA,RA,0.08,0.0,WeatherDisplay:10.37,2013-03-24 03:04:00,
2013-03-23 23:09:00,43.7,42.1,29.89,North,360,0.0,0.0,94,0.00,RA,RA,0.08,0.0,WeatherDisplay:10.37,2013-03-24 03:09:00,
2013-03-23 23:14:00,43.7,42.1,29.90,North,360,0.0,0.0,94,0.00,RA,RA,0.08,0.0,WeatherDisplay:10.37,2013-03-24 03:14:00,
2013-03-23 23:19:00,43.7,42.1,29.89,North,360,0.0,3.0,94,0.00,RA,RA,0.08,0.0,WeatherDisplay:10.37,2013-03-24 03:19:00,
2013-03-23 23:29:00,43.7,42.1,29.89,North,360,0.0,0.0,94,0.00,RA,RA,0.08,0.0,WeatherDisplay:10.37,2013-03-24 03:29:00,
2013-03-23 23:39:00,43.7,42.1,29.89,North,360,0.0,0.0,94,0.00,RA,RA,0.08,0.0,WeatherDisplay:10.37,2013-03-24 03:39:00,
2013-03-23 23:44:00,43.7,41.8,29.89,North,360,0.0,3.0,93,0.00,RA,RA,0.08,0.0,WeatherDisplay:10.37,2013-03-24 03:44:00,
2013-03-23 23:49:00,43.7,41.8,29.89,North,360,0.0,0.0,93,0.00,RA,RA,0.08,0.0,WeatherDisplay:10.37,2013-03-24 03:49:00,
2013-03-23 23:54:00,43.6,41.7,29.89,North,360,0.0,0.0,93,0.00,RA,RA,0.08,0.0,WeatherDisplay:10.37,2013-03-24 03:54:00,